Time;durP1;ratioP1;P1;durP2;ratioP2;P2;SDS_P1;SDS_P2;PMS_P1;PMS_P2;Temp;Humidity;BMP_temperature;BMP_pressure;BME280_temperature;BME280_humidity;BME280_pressure;Samples;Min_cycle;Max_cycle;Signal;HPM_P1;HPM_P2
2022/09/01 00:00:27;;;;;;;2.25;1.33;;;9.60;23.00;;;9.69;92.66;99300.44;5022151;28;120123;-69
2022/09/01 00:02:56;;;;;;;4.82;1.48;;;9.60;23.80;;;9.65;92.72;99299.44;5025256;28;119464;-72
2022/09/01 00:05:26;;;;;;;2.95;1.50;;;9.70;25.00;;;9.59;93.08;99303.41;5020720;28;129550;-68
2022/09/01 00:07:55;;;;;;;1.80;1.40;;;9.60;26.30;;;9.53;93.85;99296.50;5011922;28;130048;-69
2022/09/01 00:10:23;;;;;;;3.13;1.48;;;9.60;27.30;;;9.55;93.93;99302.41;5005233;28;119687;-69
2022/09/01 00:12:52;;;;;;;2.50;1.63;;;9.60;29.30;;;9.52;94.22;99287.59;5022420;28;119744;-70
2022/09/01 00:15:21;;;;;;;2.85;1.60;;;9.50;39.00;;;9.52;94.53;99289.47;5020482;28;130333;-69
2022/09/01 00:17:49;;;;;;;3.47;1.70;;;9.50;41.20;;;9.47;95.38;99289.63;5021757;28;129378;-70
2022/09/01 00:20:18;;;;;;;2.40;1.40;;;9.50;46.00;;;9.46;95.47;99293.44;5014898;28;122363;-70
2022/09/01 00:22:49;;;;;;;4.65;1.63;;;9.40;52.00;;;9.39;95.78;99290.38;5024356;28;122225;-71
2022/09/01 00:25:19;;;;;;;5.07;1.70;;;9.40;56.00;;;9.37;96.13;99287.19;5020480;28;129947;-70
2022/09/01 00:27:49;;;;;;;3.10;1.50;;;9.30;58.40;;;9.32;96.28;99285.38;5021919;28;129805;-71
2022/09/01 00:30:18;;;;;;;2.53;1.52;;;9.30;61.10;;;9.25;96.84;99293.91;5022406;28;120039;-74
2022/09/01 00:32:47;;;;;;;2.17;1.38;;;9.30;59.00;;;9.23;96.80;99288.03;5020872;28;120785;-70
2022/09/01 00:35:17;;;;;;;3.00;1.80;;;9.30;61.60;;;9.22;97.05;99299.16;5023580;28;129354;-73
2022/09/01 00:37:47;;;;;;;2.88;1.70;;;9.20;66.20;;;9.18;96.92;99301.69;5022074;28;130039;-71
2022/09/01 00:40:18;;;;;;;2.42;1.50;;;9.20;68.10;;;9.13;97.10;99302.59;5023902;28;119255;-72
2022/09/01 00:42:47;;;;;;;2.58;1.60;;;9.10;70.20;;;9.09;97.85;99303.53;5007560;28;119572;-72
2022/09/01 00:45:18;;;;;;;4.47;1.80;;;9.20;69.00;;;9.06;97.72;99304.13;5020463;28;129929;-73
2022/09/01 00:47:48;;;;;;;2.92;1.60;;;9.10;71.20;;;9.04;97.57;99312.56;5021068;28;129967;-69
2022/09/01 00:50:18;;;;;;;2.35;1.60;;;9.10;66.90;;;9.02;97.29;99300.44;5023752;28;120777;-71
2022/09/01 00:52:52;;;;;;;2.72;1.67;;;9.10;69.00;;;8.96;98.01;99300.56;5020853;28;120143;-70
2022/09/01 00:55:27;;;;;;;3.22;1.60;;;9.10;73.60;;;8.97;97.80;99307.56;5023412;27;129918;-71
2022/09/01 00:57:56;;;;;;;3.75;1.60;;;9.00;78.50;;;8.93;98.32;99306.56;5020046;28;130157;-75
2022/09/01 01:00:28;;;;;;;3.55;1.70;;;9.00;84.30;;;8.94;98.33;99308.19;5003016;28;119685;-71
2022/09/01 01:02:57;;;;;;;3.97;1.52;;;9.00;89.50;;;8.92;98.17;99307.69;5004523;28;119601;-72
2022/09/01 01:05:32;;;;;;;2.80;1.63;;;8.90;89.40;;;8.88;98.88;99298.59;4999947;28;130039;-70
2022/09/01 01:08:06;;;;;;;3.72;1.80;;;8.90;89.40;;;8.86;99.13;99311.59;5016180;28;129586;-72
2022/09/01 01:10:38;;;;;;;2.65;1.63;;;8.90;89.40;;;8.88;99.39;99314.81;5021991;28;120986;-71
2022/09/01 01:13:11;;;;;;;2.25;1.60;;;8.90;89.40;;;8.88;99.23;99314.00;5006755;28;120627;-75
2022/09/01 01:15:42;;;;;;;3.17;1.73;;;8.90;89.40;;;8.84;99.04;99318.44;5021122;28;130728;-68
2022/09/01 01:18:12;;;;;;;2.80;1.50;;;8.90;89.40;;;8.86;98.69;99314.31;5023237;28;129204;-73
2022/09/01 01:23:49;;;;;;;6.47;1.60;;;8.90;89.40;;;8.92;97.81;99294.13;4965684;28;119169;-69
2022/09/01 01:26:19;;;;;;;3.63;1.70;;;8.90;90.90;;;8.91;97.75;99300.69;5012560;28;129778;-71
2022/09/01 01:28:50;;;;;;;3.00;1.70;;;8.90;89.40;;;8.93;97.44;99293.03;5021304;28;129595;-70
2022/09/01 01:31:21;;;;;;;3.72;1.90;;;8.90;89.50;;;8.94;97.51;99300.06;5019953;28;119510;-71
2022/09/01 01:33:53;;;;;;;2.72;1.50;;;8.80;89.40;;;8.95;97.14;99287.31;5006188;28;119199;-73
2022/09/01 01:36:31;;;;;;;4.10;1.70;;;8.80;87.20;;;8.95;96.95;99298.94;5019846;28;130100;-75
2022/09/01 01:39:07;;;;;;;3.10;1.83;;;8.90;79.80;;;8.97;96.69;99296.72;5019510;28;129656;-71
2022/09/01 01:41:41;;;;;;;5.00;2.00;;;8.90;77.20;;;8.99;96.51;99294.53;5023040;28;120123;-71
2022/09/01 01:44:13;;;;;;;4.10;1.70;;;8.90;76.20;;;9.02;96.05;99290.41;5019688;28;119334;-73
2022/09/01 01:46:45;;;;;;;2.85;1.50;;;8.90;71.90;;;9.04;95.53;99306.31;5022453;28;129349;-70
2022/09/01 01:49:18;;;;;;;2.72;1.55;;;9.00;68.00;;;8.95;95.69;99304.34;5019588;28;130075;-73
2022/09/01 01:51:56;;;;;;;3.03;1.70;;;8.90;65.30;;;8.97;95.84;99294.00;5006210;28;118732;-71
2022/09/01 01:54:31;;;;;;;3.20;1.77;;;8.90;67.90;;;8.99;95.68;99289.13;5021169;28;119514;-69
2022/09/01 01:57:03;;;;;;;3.03;1.80;;;8.90;70.40;;;8.98;95.49;99286.72;5021974;28;129563;-72
2022/09/01 01:59:32;;;;;;;3.50;1.70;;;8.90;70.60;;;8.96;95.43;99292.44;5036150;27;129422;-72
2022/09/01 02:02:02;;;;;;;2.15;1.42;;;8.90;68.90;;;8.95;95.44;99290.81;5020699;28;122605;-71
2022/09/01 02:04:32;;;;;;;3.63;2.03;;;8.80;71.20;;;8.93;95.48;99290.34;5019217;28;121840;-72
2022/09/01 02:07:11;;;;;;;2.20;1.60;;;8.80;70.40;;;8.90;95.62;99285.53;5018474;28;130300;-71
2022/09/01 02:09:44;;;;;;;4.15;1.73;;;8.80;75.60;;;8.87;96.13;99290.78;5019158;28;129418;-73
2022/09/01 02:12:17;;;;;;;3.35;1.75;;;8.70;77.70;;;8.81;96.43;99300.91;5021044;28;119555;-70
2022/09/01 02:14:47;;;;;;;3.60;1.70;;;8.80;82.00;;;8.82;96.50;99291.69;5005517;28;118890;-70
2022/09/01 02:17:15;;;;;;;3.22;1.80;;;8.70;89.10;;;8.80;96.68;99291.97;5020102;28;130274;-71
2022/09/01 02:19:46;;;;;;;3.40;1.85;;;8.70;89.20;;;8.78;97.17;99301.50;5005976;28;129678;-71
2022/09/01 02:22:14;;;;;;;4.20;2.08;;;8.70;89.30;;;8.73;97.46;99290.81;5022048;28;119159;-71
2022/09/01 02:24:47;;;;;;;4.18;1.70;;;8.60;89.10;;;8.73;97.33;99290.81;5022218;28;119389;-70
2022/09/01 02:27:23;;;;;;;2.63;1.55;;;8.60;93.00;;;8.66;98.13;99295.81;5020635;28;129696;-70
2022/09/01 02:29:54;;;;;;;4.50;1.60;;;8.50;96.00;;;8.67;98.24;99286.59;5018530;28;129484;-71
2022/09/01 02:32:22;;;;;;;3.13;1.98;;;8.40;98.50;;;8.61;98.55;99294.81;5020022;28;119354;-71
2022/09/01 02:35:00;;;;;;;5.30;2.50;;;8.40;99.90;;;8.55;99.46;99290.59;5018991;28;119547;-70
2022/09/01 02:37:29;;;;;;;4.20;1.90;;;8.40;99.90;;;8.53;99.71;99292.03;5005181;28;129737;-71
2022/09/01 02:39:58;;;;;;;3.63;1.83;;;8.40;99.90;;;8.49;99.97;99286.41;5018343;28;130193;-71
2022/09/01 02:42:28;;;;;;;4.60;2.30;;;8.40;99.90;;;8.45;100.00;99285.44;5021752;28;119285;-70
2022/09/01 02:44:57;;;;;;;3.22;1.70;;;8.40;99.90;;;8.44;100.00;99289.22;5019035;28;119540;-71
2022/09/01 02:47:27;;;;;;;3.28;1.83;;;8.40;99.90;;;8.41;100.00;99278.97;5021145;28;129750;-76
2022/09/01 02:49:57;;;;;;;3.80;1.90;;;8.40;99.90;;;8.41;100.00;99281.69;5018611;28;130115;-71
2022/09/01 02:52:28;;;;;;;3.05;1.77;;;8.30;99.90;;;8.39;100.00;99286.59;5020606;28;122424;-69
2022/09/01 02:54:57;;;;;;;4.82;2.10;;;8.40;99.90;;;8.37;100.00;99294.22;5018477;28;122353;-70
2022/09/01 02:57:28;;;;;;;5.30;2.00;;;8.40;99.90;;;8.33;100.00;99299.41;5021368;28;129550;-70
2022/09/01 02:59:57;;;;;;;2.97;1.70;;;8.30;99.90;;;8.33;100.00;99293.22;5019644;28;131097;-74
2022/09/01 03:02:28;;;;;;;3.65;2.03;;;8.30;99.90;;;8.34;100.00;99306.44;5004051;28;120227;-69
2022/09/01 03:04:57;;;;;;;5.50;2.10;;;8.30;99.90;;;8.40;100.00;99309.84;5018504;28;119601;-72
2022/09/01 03:07:26;;;;;;;4.72;1.90;;;8.40;99.90;;;8.43;100.00;99303.81;5021602;28;130098;-69
2022/09/01 03:09:55;;;;;;;3.60;2.05;;;8.40;99.90;;;8.40;100.00;99294.41;5018351;28;129939;-71
2022/09/01 03:12:24;;;;;;;3.60;1.85;;;8.30;99.90;;;8.41;100.00;99300.63;5019512;28;119809;-69
2022/09/01 03:14:54;;;;;;;4.60;2.63;;;8.30;99.90;;;8.40;100.00;99304.44;5018133;28;119772;-72
2022/09/01 03:17:23;;;;;;;4.13;1.90;;;8.20;99.90;;;8.39;100.00;99302.81;5004927;28;129806;-73
2022/09/01 03:19:53;;;;;;;4.65;2.22;;;8.30;99.90;;;8.44;100.00;99305.44;5021490;28;130346;-73
2022/09/01 03:22:22;;;;;;;3.85;2.45;;;8.30;99.90;;;8.44;100.00;99305.44;5024848;28;119754;-73
2022/09/01 03:24:50;;;;;;;3.20;1.80;;;8.40;99.90;;;8.49;100.00;99309.97;5022345;28;119521;-70
2022/09/01 03:27:19;;;;;;;3.20;2.03;;;8.40;99.90;;;8.50;100.00;99314.28;5025017;28;130088;-70
2022/09/01 03:29:47;;;;;;;3.55;2.33;;;8.30;99.90;;;8.52;100.00;99312.84;5008289;28;129654;-72
2022/09/01 03:32:17;;;;;;;5.40;2.30;;;8.40;99.90;;;8.56;100.00;99307.66;5023274;28;119906;-70
2022/09/01 03:34:47;;;;;;;3.22;2.08;;;8.50;99.90;;;8.56;100.00;99303.03;5022285;28;120045;-71
2022/09/01 03:37:16;;;;;;;3.22;2.00;;;8.50;99.90;;;8.64;100.00;99315.06;5024934;28;128889;-74
2022/09/01 03:39:45;;;;;;;5.43;1.90;;;8.50;99.90;;;8.71;100.00;99310.03;5008155;28;128368;-72
2022/09/01 03:42:24;;;;;;;2.92;2.00;;;8.50;99.90;;;8.80;100.00;99320.94;5024163;28;122340;-70
2022/09/01 03:44:55;;;;;;;5.85;2.10;;;8.60;99.90;;;8.90;100.00;99318.00;5023334;28;122484;-70
2022/09/01 03:47:26;;;;;;;4.43;2.30;;;8.60;99.90;;;9.04;99.55;99322.56;5024419;28;129615;-73
2022/09/01 03:49:55;;;;;;;3.63;2.13;;;8.70;99.90;;;9.14;98.92;99316.94;5021507;28;129735;-72
2022/09/01 03:52:24;;;;;;;4.15;2.05;;;8.80;99.90;;;9.28;98.04;99328.50;5022886;28;120404;-71
2022/09/01 03:54:54;;;;;;;3.10;1.75;;;8.90;99.90;;;9.44;96.98;99320.03;5021694;28;120043;-71
2022/09/01 03:57:23;;;;;;;2.38;1.58;;;9.00;99.90;;;9.62;95.95;99327.16;5024284;28;129004;-71
2022/09/01 03:59:53;;;;;;;3.38;1.90;;;9.10;99.90;;;9.78;94.62;99329.50;5021563;28;130266;-71
2022/09/01 04:02:21;;;;;;;3.92;2.13;;;9.20;98.20;;;9.88;93.85;99318.41;5024474;28;119119;-71
2022/09/01 04:04:52;;;;;;;4.10;2.25;;;9.30;91.30;;;9.99;93.08;99318.94;5021646;28;120003;-72
2022/09/01 04:07:20;;;;;;;3.22;1.90;;;9.40;89.80;;;10.10;91.96;99320.25;5006455;28;129178;-72
2022/09/01 04:09:51;;;;;;;3.20;2.08;;;9.40;86.60;;;10.23;91.18;99318.53;5021867;28;129815;-71
2022/09/01 04:12:21;;;;;;;4.28;1.85;;;9.50;81.20;;;10.41;90.33;99317.53;5007584;28;119753;-73
2022/09/01 04:14:53;;;;;;;4.50;1.85;;;9.60;75.60;;;10.37;89.21;99311.13;5021329;28;119259;-72
2022/09/01 04:20:10;;;;;;;2.97;1.83;;;9.60;72.30;;;10.31;89.96;99317.75;5020448;28;129877;-71
2022/09/01 04:22:38;;;;;;;5.55;2.00;;;9.70;63.10;;;10.30;89.49;99313.47;5022975;28;119817;-71
2022/09/01 04:25:08;;;;;;;4.53;2.00;;;9.60;60.30;;;10.35;89.04;99310.63;5022964;28;119473;-71
2022/09/01 04:27:39;;;;;;;2.25;1.58;;;9.70;55.20;;;10.17;89.66;99309.72;5023912;28;129802;-72
2022/09/01 04:30:11;;;;;;;3.47;1.90;;;9.60;57.50;;;10.21;89.75;99309.94;5019885;27;129761;-72
2022/09/01 04:32:41;;;;;;;6.32;1.95;;;9.60;52.20;;;10.25;89.80;99305.47;5022279;28;121682;-71
2022/09/01 04:35:15;;;;;;;3.72;2.08;;;9.60;59.00;;;10.27;89.93;99300.53;5021092;28;122854;-71
2022/09/01 04:37:48;;;;;;;5.80;2.13;;;9.70;59.30;;;10.53;88.49;99300.66;5024081;28;131546;-72
2022/09/01 04:40:17;;;;;;;3.58;1.83;;;9.80;50.90;;;10.83;86.92;99308.19;5021018;28;129523;-72
2022/09/01 04:42:50;;;;;;;5.25;1.98;;;10.00;39.00;;;10.91;86.16;99310.13;5007282;28;119456;-72
2022/09/01 04:45:24;;;;;;;2.67;1.63;;;10.00;32.10;;;10.92;85.69;99300.84;5020928;28;119664;-71
2022/09/01 04:47:52;;;;;;;2.90;1.77;;;10.10;28.80;;;11.08;85.10;99293.84;5022093;28;130280;-71
2022/09/01 04:50:24;;;;;;;5.13;1.88;;;10.20;26.60;;;11.23;84.14;99302.59;5021321;28;129524;-71
2022/09/01 04:53:12;;;;;;;5.53;1.80;;;10.40;15.90;;;11.27;83.68;99301.66;5022009;28;119952;-70
2022/09/01 04:55:44;;;;;;;2.92;1.98;;;10.40;12.30;;;11.14;83.90;99303.41;5020629;28;119334;-71
2022/09/01 04:58:17;;;;;;;3.03;1.70;;;10.30;17.20;;;11.01;84.49;99301.66;5022181;28;129319;-71
2022/09/01 05:00:48;;;;;;;4.53;1.90;;;10.20;19.30;;;11.07;84.03;99305.81;5020486;28;129867;-68
2022/09/01 05:03:22;;;;;;;2.80;1.85;;;10.30;13.30;;;11.14;84.15;99302.59;5021461;28;120059;-69
2022/09/01 05:06:20;;;;;;;4.03;2.05;;;10.50;10.90;;;11.27;82.80;99311.72;5023626;28;119591;-71
2022/09/01 05:08:56;;;;;;;3.78;1.88;;;10.50;1.00;;;11.30;82.02;99305.66;5019718;28;130280;-72
2022/09/01 05:11:44;;;;;;;3.70;1.90;;;10.50;1.00;;;11.32;82.43;99303.41;5023576;28;129305;-70
2022/09/01 05:14:22;;;;;;;3.35;1.80;;;10.50;1.00;;;10.94;83.34;99313.00;5020100;28;120252;-69
2022/09/01 05:16:57;;;;;;;3.22;2.00;;;10.40;1.00;;;11.06;82.97;99306.13;5023859;28;119137;-75
2022/09/01 05:19:27;;;;;;;3.58;1.60;;;10.60;1.00;;;11.42;81.97;99297.66;5021001;28;130797;-69
2022/09/01 05:21:59;;;;;;;2.95;1.70;;;10.90;1.00;;;11.83;79.57;99303.63;5023053;28;129410;-69
2022/09/01 05:24:30;;;;;;;4.63;1.95;;;11.00;1.00;;;12.10;77.98;99310.59;5019036;28;122705;-72
2022/09/01 05:27:04;;;;;;;3.08;1.58;;;11.10;1.00;;;12.12;75.09;99305.63;5020065;28;121697;-72
2022/09/01 05:29:37;;;;;;;2.75;1.60;;;11.00;1.00;;;12.07;74.64;99310.47;5006215;28;129140;-74
2022/09/01 05:32:11;;;;;;;5.45;2.05;;;10.80;1.00;;;12.15;74.27;99307.69;5022716;28;129730;-75
2022/09/01 05:34:43;;;;;;;5.43;1.60;;;11.00;1.00;;;12.25;73.53;99305.72;5021231;28;119907;-71
2022/09/01 05:37:14;;;;;;;2.47;1.52;;;11.10;1.00;;;12.38;71.77;99308.22;5019719;28;119675;-69
2022/09/01 05:39:43;;;;;;;4.35;1.58;;;11.30;1.00;;;12.50;70.61;99302.09;5022560;28;129906;-70
2022/09/01 05:42:12;;;;;;;2.60;1.50;;;11.00;1.00;;;12.58;70.98;99303.16;5019405;28;129488;-71
2022/09/01 05:44:43;;;;;;;6.63;1.70;;;11.30;1.00;;;12.56;71.12;99300.78;5023255;28;119867;-71
2022/09/01 05:47:14;;;;;;;2.20;1.40;;;11.30;1.00;;;12.59;70.98;99297.41;5022897;28;119019;-71
2022/09/01 05:49:43;;;;;;;4.70;1.83;;;11.10;1.00;;;12.69;71.43;99303.59;5018147;28;129896;-71
2022/09/01 05:52:14;;;;;;;2.45;1.40;;;11.40;1.00;;;12.50;71.28;99302.09;5019121;28;129709;-71
2022/09/01 05:54:46;;;;;;;5.35;1.80;;;11.50;1.00;;;12.57;71.16;99296.94;5022740;28;119119;-72
2022/09/01 05:57:18;;;;;;;2.35;1.50;;;11.50;1.00;;;12.71;70.68;99295.88;5023250;28;119095;-72
2022/09/01 05:59:52;;;;;;;3.33;1.60;;;11.60;1.00;;;12.63;70.15;99294.03;5020458;28;130589;-70
2022/09/01 06:02:25;;;;;;;3.55;1.48;;;11.30;1.00;;;12.71;69.89;99295.88;5021200;28;129720;-70
2022/09/01 06:04:55;;;;;;;3.20;1.48;;;11.30;1.00;;;12.13;73.05;99299.06;5022547;28;118975;-69
2022/09/01 06:07:29;;;;;;;2.85;1.40;;;11.30;1.00;;;12.43;72.80;99296.34;5022836;28;118848;-68
2022/09/01 06:10:01;;;;;;;3.00;1.60;;;11.80;1.00;;;12.81;70.11;99295.50;5022379;28;130099;-74
2022/09/01 06:12:30;;;;;;;2.38;1.23;;;11.90;1.00;;;12.84;69.26;99297.56;5019017;28;129280;-70
2022/09/01 06:15:00;;;;;;;3.75;1.40;;;11.90;1.00;;;12.46;70.71;99300.34;5021150;28;122487;-68
2022/09/01 06:17:29;;;;;;;2.58;1.50;;;11.60;1.00;;;12.24;72.16;99299.50;5019146;28;122057;-70
2022/09/01 06:20:09;;;;;;;1.42;1.05;;;11.70;1.00;;;11.65;73.39;99300.16;5021848;28;129427;-68
2022/09/01 06:22:40;;;;;;;3.45;1.60;;;11.20;1.00;;;11.80;73.31;99296.13;5018982;28;129447;-70
2022/09/01 06:25:11;;;;;;;1.98;1.20;;;11.30;1.00;;;12.25;72.33;99294.84;5022357;28;119134;-78
2022/09/01 06:27:43;;;;;;;2.75;1.40;;;11.60;1.00;;;12.70;70.12;99295.09;5019232;28;119912;-70
2022/09/01 06:30:15;;;;;;;2.75;1.50;;;12.00;1.00;;;12.78;68.75;99307.06;5019849;28;129799;-67
2022/09/01 06:32:48;;;;;;;2.35;1.33;;;12.00;1.00;;;12.51;69.77;99314.59;5018708;28;129454;-69
2022/09/01 06:35:18;;;;;;;3.13;1.58;;;11.70;1.00;;;12.13;72.21;99315.38;5020238;28;119639;-68
2022/09/01 06:37:48;;;;;;;4.43;1.88;;;11.70;1.00;;;12.30;71.27;99316.44;5018809;28;119312;-70
2022/09/01 06:40:34;;;;;;;2.15;1.10;;;11.70;1.00;;;12.06;71.39;99320.56;5020245;28;131816;-70
2022/09/01 06:43:06;;;;;;;7.72;3.13;;;11.50;1.00;;;12.34;69.59;99314.66;5018291;28;129473;-68
2022/09/01 06:45:42;;;;;;;2.70;1.40;;;11.70;1.00;;;12.07;67.67;99311.25;5038672;27;120012;-72
2022/09/01 06:48:17;;;;;;;3.15;1.33;;;11.60;1.00;;;12.23;67.73;99304.16;5018752;28;119871;-66
2022/09/01 06:50:46;;;;;;;2.85;1.30;;;11.80;1.00;;;12.48;67.66;99317.97;5021266;28;129461;-71
2022/09/01 06:53:17;;;;;;;3.45;1.35;;;12.10;1.00;;;12.34;69.56;99311.94;5004738;28;128686;-69
2022/09/01 06:55:49;;;;;;;2.83;1.58;;;12.00;1.00;;;12.54;68.23;99313.94;5022004;28;119473;-68
2022/09/01 06:58:17;;;;;;;2.63;1.40;;;12.00;1.00;;;12.57;68.17;99307.81;5020414;28;119715;-73
2022/09/01 07:00:52;;;;;;;2.78;1.55;;;12.00;1.00;;;12.40;69.42;99316.06;5021204;28;129949;-70
2022/09/01 07:03:23;;;;;;;5.70;1.75;;;11.90;1.00;;;12.77;67.93;99310.91;5019480;28;130083;-70
2022/09/01 07:06:14;;;;;;;3.80;1.17;;;12.20;1.00;;;13.51;64.12;99311.31;5018348;28;122119;-71
2022/09/01 07:09:07;;;;;;;5.40;1.88;;;12.70;1.00;;;13.96;62.46;99315.97;5016709;27;121644;-72
2022/09/01 07:11:36;;;;;;;3.50;1.42;;;12.70;1.00;;;13.88;61.97;99319.56;5021511;28;130021;-73
2022/09/01 07:14:06;;;;;;;9.82;1.50;;;12.50;1.00;;;13.56;62.29;99324.72;5004604;28;128779;-72
2022/09/01 07:16:38;;;;;;;5.85;1.60;;;12.10;1.00;;;13.39;61.93;99327.59;5021610;28;119375;-70
2022/09/01 07:19:13;;;;;;;2.60;1.58;;;12.10;1.00;;;13.31;61.70;99330.03;5018097;28;119577;-68
2022/09/01 07:21:51;;;;;;;4.88;1.70;;;11.90;1.00;;;13.18;62.39;99336.53;5038243;27;129345;-71
2022/09/01 07:24:24;;;;;;;3.30;1.40;;;11.90;1.00;;;13.10;63.25;99334.69;5018674;28;129585;-72
2022/09/01 07:27:32;;;;;;;3.88;1.55;;;12.00;1.00;;;12.77;64.59;99332.69;4959991;28;119532;-72
2022/09/01 07:30:00;;;;;;;3.08;1.40;;;11.80;1.00;;;13.16;62.48;99343.47;4957538;28;119627;-71
2022/09/01 07:32:30;;;;;;;2.95;1.50;;;12.20;1.00;;;13.16;62.03;99338.81;4987028;28;129883;-71
2022/09/01 07:35:00;;;;;;;3.72;1.40;;;12.50;1.00;;;13.19;61.42;99343.59;5017902;28;130161;-70
2022/09/01 07:37:30;;;;;;;2.65;1.50;;;12.50;1.00;;;13.58;60.09;99338.81;5038464;27;120015;-67
2022/09/01 07:40:01;;;;;;;2.78;1.60;;;12.40;1.00;;;13.45;61.81;99335.25;5018038;28;119330;-69
2022/09/01 07:42:49;;;;;;;3.03;1.60;;;12.60;1.00;;;13.77;60.16;99346.47;5019016;28;129745;-68
2022/09/01 07:45:26;;;;;;;3.42;1.98;;;12.90;1.00;;;13.65;57.80;99347.25;5018911;28;129671;-71
2022/09/01 07:48:07;;;;;;;4.97;1.85;;;12.90;1.00;;;14.58;55.68;99346.00;5004606;28;119057;-69
2022/09/01 07:50:46;;;;;;;4.55;1.88;;;13.50;1.00;;;14.17;56.21;99348.63;5018065;28;119509;-68
2022/09/01 07:53:17;;;;;;;3.20;1.83;;;13.00;1.00;;;14.50;55.96;99341.47;5020948;28;129989;-71
2022/09/01 07:55:50;;;;;;;3.30;1.67;;;13.10;1.00;;;14.92;54.55;99352.16;5017703;28;129924;-71
2022/09/01 07:58:22;;;;;;;2.97;1.55;;;13.50;1.00;;;13.98;57.63;99351.88;5019933;28;121617;-74
2022/09/01 08:00:56;;;;;;;3.15;1.80;;;13.00;1.00;;;13.21;59.00;99349.50;5017606;28;121789;-72
2022/09/01 08:03:26;;;;;;;3.38;1.73;;;12.60;1.00;;;13.27;57.04;99355.56;5017714;27;130580;-68
2022/09/01 08:05:59;;;;;;;2.72;1.70;;;12.60;1.00;;;13.91;55.77;99356.28;5020602;28;130043;-72
2022/09/01 08:08:28;;;;;;;2.95;1.58;;;13.10;1.00;;;14.79;53.01;99351.41;5020848;28;120076;-69
2022/09/01 08:10:58;;;;;;;3.00;1.73;;;13.60;1.00;;;14.43;55.75;99352.97;5020898;28;119163;-69
2022/09/01 08:13:27;;;;;;;4.72;1.63;;;13.40;1.00;;;14.25;55.34;99360.56;5023958;28;129531;-69
2022/09/01 08:15:56;;;;;;;2.80;1.52;;;13.20;1.00;;;13.53;55.76;99357.31;5020966;28;129507;-67
2022/09/01 08:18:24;;;;;;;3.40;1.85;;;12.80;1.00;;;13.36;57.71;99353.59;5024185;28;119907;-69
2022/09/01 08:20:53;;;;;;;3.58;1.92;;;12.80;1.00;;;13.85;55.73;99352.97;5021004;28;119686;-68
2022/09/01 08:23:37;;;;;;;3.17;1.65;;;12.90;1.00;;;14.53;53.36;99347.03;5019430;28;130308;-71
2022/09/01 08:26:10;;;;;;;3.58;1.98;;;12.90;1.00;;;15.57;50.75;99348.56;5023992;28;129523;-71
2022/09/01 08:28:39;;;;;;;4.57;1.65;;;13.70;1.00;;;15.41;49.95;99348.50;5021880;28;119559;-67
2022/09/01 08:31:10;;;;;;;3.67;1.67;;;13.90;1.00;;;15.07;50.96;99346.00;5020607;28;119317;-72
2022/09/01 08:33:40;;;;;;;5.63;2.10;;;13.70;1.00;;;15.00;51.42;99337.56;5023471;28;129756;-71
2022/09/01 08:36:12;;;;;;;2.88;1.60;;;13.70;1.00;;;15.69;50.26;99353.16;5020421;28;130182;-70
2022/09/01 08:38:41;;;;;;;3.00;1.65;;;13.70;1.00;;;15.82;49.70;99336.38;5023963;28;119318;-69
2022/09/01 08:41:24;;;;;;;3.58;1.60;;;13.90;1.00;;;16.00;46.90;99338.78;5021044;28;119940;-69
2022/09/01 08:44:09;;;;;;;3.40;1.77;;;14.20;1.00;;;16.13;46.28;99334.03;5021411;28;129984;-74
2022/09/01 08:46:41;;;;;;;3.08;1.52;;;14.30;1.00;;;16.22;46.72;99342.06;5023532;28;128993;-69
2022/09/01 08:49:17;;;;;;;3.65;1.88;;;14.30;1.00;;;16.27;45.92;99333.59;5005617;28;121474;-71
2022/09/01 08:52:17;;;;;;;5.80;1.65;;;14.40;1.00;;;16.08;45.34;99346.03;5021706;28;122919;-66
2022/09/01 08:54:51;;;;;;;3.15;1.67;;;14.00;1.00;;;15.68;47.61;99340.66;5020192;28;129742;-72
2022/09/01 08:57:27;;;;;;;3.72;1.73;;;13.70;1.00;;;15.55;48.15;99331.69;5020457;28;129999;-71
2022/09/01 09:00:28;;;;;;;7.20;5.25;;;13.60;1.00;;;14.63;51.40;99342.28;4987644;27;118829;-71
2022/09/01 09:03:12;;;;;;;4.80;2.13;;;13.40;1.00;;;13.97;54.33;99347.53;5023075;28;118888;-68
2022/09/01 09:06:02;;;;;;;3.25;1.60;;;13.20;1.00;;;14.06;54.41;99341.22;5021491;28;130268;-71
2022/09/01 09:08:52;;;;;;;5.97;2.03;;;13.10;1.00;;;13.77;55.25;99343.75;5021716;28;130031;-68
2022/09/01 09:11:55;;;;;;;10.00;3.78;;;13.10;1.00;;;13.89;54.85;99332.06;5021671;28;119629;-69
2022/09/01 09:14:49;;;;;;;4.30;1.92;;;13.20;1.00;;;14.74;50.80;99330.56;5022505;27;119440;-68
2022/09/01 09:17:24;;;;;;;4.93;1.98;;;13.70;1.00;;;16.10;46.55;99324.56;5019893;28;129770;-72
2022/09/01 09:19:53;;;;;;;4.35;1.70;;;14.60;1.00;;;16.51;45.93;99338.06;5021306;28;129972;-73
2022/09/01 09:22:22;;;;;;;3.60;1.90;;;15.00;1.00;;;16.49;45.75;99334.91;5021449;28;120422;-77
2022/09/01 09:24:54;;;;;;;4.78;1.67;;;14.70;1.00;;;17.08;44.26;99335.88;5021452;28;119481;-72
2022/09/01 09:27:26;;;;;;;5.55;2.10;;;14.80;1.00;;;17.10;43.70;99330.81;5021104;28;130384;-73
2022/09/01 09:29:59;;;;;;;5.75;1.95;;;14.70;1.00;;;17.40;42.87;99332.97;5020650;28;130604;-71
2022/09/01 09:32:47;;;;;;;4.88;2.22;;;15.30;1.00;;;15.82;45.46;99330.91;5020847;28;119386;-68
2022/09/01 09:35:30;;;;;;;3.60;1.58;;;14.60;1.00;;;15.90;46.15;99325.63;5021355;28;119455;-69
2022/09/01 09:38:21;;;;;;;3.55;1.83;;;14.70;1.00;;;16.12;46.46;99333.22;5020607;28;130448;-71
2022/09/01 09:41:02;;;;;;;3.85;2.25;;;14.80;1.00;;;15.33;48.28;99331.09;5020622;28;129483;-69
2022/09/01 09:43:36;;;;;;;3.33;1.80;;;14.10;1.00;;;15.13;48.11;99343.81;5019269;28;122818;-71
2022/09/01 09:46:34;;;;;;;2.45;1.50;;;13.90;1.00;;;14.98;47.96;99330.88;5020740;28;122043;-69
2022/09/01 09:49:23;;;;;;;3.40;2.03;;;13.90;1.00;;;15.65;47.38;99336.66;5022529;27;129785;-69
2022/09/01 09:51:54;;;;;;;3.80;1.60;;;14.30;1.00;;;15.82;47.15;99341.84;5020205;28;130082;-69
2022/09/01 09:54:26;;;;;;;8.35;1.85;;;14.00;1.00;;;15.30;48.35;99334.53;5020695;28;119443;-72
2022/09/01 09:57:12;;;;;;;3.95;1.63;;;14.10;1.00;;;15.96;46.81;99340.66;5020675;28;119328;-68
2022/09/01 09:59:44;;;;;;;3.15;1.70;;;14.10;1.00;;;16.00;45.98;99336.03;5020264;28;130970;-70
2022/09/01 10:02:31;;;;;;;5.72;1.80;;;14.10;1.00;;;16.08;44.87;99347.97;5020557;28;129837;-71
2022/09/01 10:05:01;;;;;;;3.97;1.50;;;14.30;1.00;;;15.89;44.60;99340.44;5020495;28;119600;-70
2022/09/01 10:07:34;;;;;;;4.57;1.88;;;14.20;1.00;;;16.18;44.32;99350.97;5020720;28;119646;-72
2022/09/01 10:10:08;;;;;;;3.53;1.70;;;14.30;1.00;;;15.98;44.69;99352.03;5020821;28;129716;-72
2022/09/01 10:12:36;;;;;;;8.57;1.90;;;14.00;1.00;;;16.01;45.17;99354.06;5020029;28;129697;-75
2022/09/01 10:15:08;;;;;;;8.73;2.00;;;14.10;1.00;;;16.30;44.91;99349.31;5020361;28;120084;-72
2022/09/01 10:17:42;;;;;;;6.63;2.10;;;14.30;1.00;;;16.37;45.13;99354.97;5020649;28;119391;-70
2022/09/01 10:20:17;;;;;;;3.40;1.63;;;14.60;1.00;;;16.74;44.83;99349.19;5020007;28;130537;-72
2022/09/01 10:22:46;;;;;;;7.70;1.98;;;15.10;1.00;;;17.02;43.71;99345.53;5020158;28;130274;-72
2022/09/01 10:25:19;;;;;;;4.75;1.83;;;15.00;1.00;;;16.87;43.51;99347.94;5020317;28;119815;-70
2022/09/01 10:27:52;;;;;;;5.18;1.50;;;14.70;1.00;;;17.06;42.66;99343.63;5020143;28;119643;-72
2022/09/01 10:30:22;;;;;;;4.85;1.73;;;14.80;1.00;;;16.93;43.30;99342.19;5022008;28;129717;-73
2022/09/01 10:32:54;;;;;;;3.10;1.80;;;14.90;1.00;;;16.83;42.69;99340.78;5019973;28;129321;-71
2022/09/01 10:35:27;;;;;;;5.70;1.90;;;14.50;1.00;;;17.11;43.26;99348.84;5019036;28;122707;-71
2022/09/01 10:37:56;;;;;;;3.20;1.27;;;14.70;1.00;;;17.02;42.44;99351.00;5019728;28;121648;-71
2022/09/01 10:40:44;;;;;;;2.58;1.10;;;14.60;1.00;;;16.82;42.27;99336.44;5020018;28;129962;-69
2022/09/01 10:43:37;;;;;;;3.30;1.77;;;14.50;1.00;;;16.62;43.24;99338.34;5022547;28;131183;-69
2022/09/01 10:46:43;;;;;;;4.93;1.50;;;14.70;1.00;;;16.27;44.41;99355.50;5019987;28;119546;-71
2022/09/01 10:50:07;;;;;;;5.30;1.70;;;14.30;1.00;;;16.37;44.69;99349.47;5019734;28;119488;-71
2022/09/01 10:53:08;;;;;;;8.52;2.08;;;14.40;1.00;;;16.31;45.12;99345.41;5012495;27;130447;-68